createdAt,value
2019-04-14T00:05:38.854Z,46.2
2019-04-14T00:20:51.457Z,45.8
2019-04-14T00:35:58.315Z,45.8
2019-04-14T00:51:15.772Z,45.8
2019-04-14T01:06:27.543Z,46.2
2019-04-14T01:21:39.442Z,46.3
2019-04-14T01:36:41.754Z,46.6
2019-04-14T01:52:03.869Z,46.5
2019-04-14T02:07:16.856Z,49.7
2019-04-14T02:22:29.365Z,53
2019-04-14T02:38:47.209Z,55.8
2019-04-14T02:55:02.716Z,56.2
2019-04-14T03:11:24.226Z,57.4
2019-04-14T03:27:54.321Z,57.8
2019-04-14T03:44:00.944Z,57.4
2019-04-14T03:59:26.425Z,57.9
2019-04-14T04:14:38.010Z,60
2019-04-14T04:29:50.830Z,62.1
2019-04-14T04:45:02.235Z,64
2019-04-14T05:00:14.187Z,65
2019-04-14T05:15:27.231Z,66.5
2019-04-14T05:30:39.535Z,67.4
2019-04-14T05:45:48.135Z,69.1
2019-04-14T06:01:02.683Z,69.8
2019-04-14T06:16:14.419Z,71.2
2019-04-14T06:31:26.381Z,71.8
2019-04-14T06:46:30.390Z,72.7
2019-04-14T07:01:50.249Z,72.4
2019-04-14T07:17:02.239Z,73.7
2019-04-14T07:32:14.228Z,73.7
2019-04-14T07:47:26.251Z,73.4
2019-04-14T08:02:38.289Z,74.2
2019-04-14T08:17:50.438Z,73.7
2019-04-14T08:33:02.545Z,74.3
2019-04-14T08:48:14.641Z,74.9
2019-04-14T09:03:23.525Z,75.3
2019-04-14T09:18:38.923Z,75.9
2019-04-14T09:33:51.102Z,76.3
2019-04-14T09:49:04.248Z,76.4
2019-04-14T10:04:07.861Z,75.2
2019-04-14T10:19:28.160Z,76.6
2019-04-14T10:34:40.244Z,76.9
2019-04-14T10:49:52.467Z,78.8
2019-04-14T11:05:04.669Z,78.7
2019-04-14T11:20:17.024Z,79.5
2019-04-14T11:35:29.474Z,80.2
2019-04-14T11:50:41.946Z,80
2019-04-14T12:05:54.568Z,79.8
2019-04-14T12:21:04.695Z,78.7
2019-04-14T12:36:20.094Z,77.1
2019-04-14T12:51:33.158Z,74
2019-04-14T13:06:46.448Z,72.6
2019-04-14T13:21:52.212Z,70.9
2019-04-14T13:37:13.592Z,65.2
2019-04-14T13:52:30.646Z,62.9
2019-04-14T14:07:42.678Z,55.4
2019-04-14T14:23:00.023Z,54.8
2019-04-14T14:38:11.118Z,51.4
2019-04-14T14:53:28.855Z,46.4
2019-04-14T15:08:44.800Z,46.6
2019-04-14T15:24:00.489Z,47.8
2019-04-14T15:39:04.136Z,50.3
2019-04-14T15:54:30.536Z,55.2
2019-04-14T16:09:45.138Z,57.1
2019-04-14T16:24:59.755Z,56.1
2019-04-14T16:40:14.320Z,60.2
2019-04-14T16:55:24.221Z,61.5
2019-04-14T17:10:43.176Z,63.6
2019-04-14T17:25:57.621Z,64.8
2019-04-14T17:41:11.691Z,64.8
2019-04-14T17:56:14.973Z,65.8
2019-04-14T18:11:39.758Z,66.4
2019-04-14T18:26:53.586Z,68.6
2019-04-14T18:42:07.415Z,69.3
2019-04-14T18:57:21.219Z,69.4
2019-04-14T19:12:32.218Z,69.5
2019-04-14T19:27:48.643Z,69.6
2019-04-14T19:43:02.294Z,69.8
2019-04-14T19:58:15.854Z,70.1
2019-04-14T20:13:20.795Z,70.5
2019-04-14T20:28:42.754Z,71.2
2019-04-14T20:43:56.228Z,70.4
2019-04-14T20:59:09.497Z,70.4
2019-04-14T21:14:22.682Z,71
2019-04-14T21:29:35.628Z,71
2019-04-14T21:44:48.850Z,73.3
2019-04-14T22:00:01.745Z,74.8
2019-04-14T22:15:14.619Z,75.5
2019-04-14T22:30:21.931Z,75.5
2019-04-14T22:45:40.186Z,75.2
2019-04-14T23:00:52.848Z,73.7
2019-04-14T23:16:05.412Z,73.6
2019-04-14T23:31:07.183Z,73
2019-04-14T23:46:30.328Z,74.6
